Latest Weather Observations for Rottnest Island

IDW60801

Issued at 12:35 pm WST Wednesday 20 August 2014 (issued every 30 minutes, with the page automatically refreshed every 10 minutes)

About weather observations | Map of weather stations | Latest weather observations for WA | Other Formats
Station Details ID: 009193 Name: ROTTNEST ISLAND Lat: -32.01 Lon: 115.50 Height: 43.1 m
Data from the previous 72 hours. | See also: Recent months at Rottnest Island
Date/Time
WST
Temp
°C
App
Temp
°C
Dew
Point
Rel
Hum
%
Delta-T
°C
Wind Press
QNH
hPa
Press
MSL
hPa
Rain
since 9 am
mm
Dir
 
Spd
km/h
Gust
km/h
Spd
kts
Gust
kts
20/12:30pm 15.7 12.9 13.2 85 1.4 NNW 20 30 11 16 1014.6 1014.5 0.6
20/12:00pm 16.5 14.7 13.4 82 1.7 N 15 19 8 10 1015.1 1015.0 0.6
20/11:30am 15.1 11.2 12.2 83 1.6 NW 24 37 13 20 1015.7 1015.6 0.6
20/11:00am 15.5 11.9 13.0 85 1.4 NW 24 32 13 17 1015.5 1015.4 0.4
20/10:30am 15.4 10.8 13.6 89 1.0 NW 30 37 16 20 1015.7 1015.6 0.4
20/10:00am 15.3 10.3 13.5 89 1.0 NNW 32 37 17 20 1015.6 1015.5 0.4
20/09:30am 16.6 11.5 13.1 80 2.0 N 32 39 17 21 1015.5 1015.4 0.0
20/09:00am 17.4 13.9 13.5 78 2.2 N 24 33 13 18 1015.5 1015.4 4.2
20/08:30am 17.0 14.0 11.9 72 2.8 NNW 19 26 10 14 1015.7 - 4.2
20/08:00am 17.0 13.0 9.2 60 4.1 NNW 20 26 11 14 1015.6 1015.5 4.2
20/07:30am 16.7 13.3 9.1 61 3.9 NW 17 24 9 13 1015.4 - 4.2
20/07:00am 16.3 12.4 8.5 60 4.0 NNW 19 24 10 13 1014.9 1014.8 4.2
20/06:30am 16.2 12.1 8.7 61 3.8 NNW 20 24 11 13 1014.7 - 4.2
20/06:00am 15.7 11.8 8.7 63 3.6 NNW 19 22 10 12 1014.6 1014.5 4.2
20/05:30am 15.8 14.3 11.8 77 2.2 WNW 11 13 6 7 1014.8 - 4.2
20/05:00am 16.0 13.3 11.8 76 2.3 NW 17 20 9 11 1015.0 1014.9 4.2
20/04:30am 16.1 12.5 11.7 75 2.4 W 22 26 12 14 1015.2 - 4.2
20/04:00am 15.4 12.6 11.2 76 2.2 WSW 17 20 9 11 1015.3 1015.2 4.2
20/03:30am 15.5 12.5 11.9 79 2.0 W 19 26 10 14 1015.3 - 4.2
20/03:00am 16.3 14.3 11.5 73 2.6 WNW 13 15 7 8 1015.7 1015.6 4.2
20/02:30am 15.9 13.9 11.5 75 2.4 NW 13 17 7 9 1016.0 - 4.2
20/02:00am 15.8 13.8 11.4 75 2.4 W 13 15 7 8 1016.4 1016.3 4.2
20/01:30am 16.0 14.0 11.6 75 2.4 W 13 19 7 10 1016.5 - 4.2
20/01:00am 15.8 13.4 11.4 75 2.4 W 15 17 8 9 1016.6 1016.5 4.2
20/12:30am 15.9 13.4 11.1 73 2.6 W 15 17 8 9 1016.6 - 4.2
20/12:00am 16.0 13.9 11.2 73 2.6 W 13 15 7 8 1016.6 1016.5 4.2
 
Date/Time
WST
Temp
°C
App
Temp
°C
Dew
Point
Rel
Hum
%
Delta-T
°C
Wind Press
QNH
hPa
Press
MSL
hPa
Rain
since 9 am
mm
Dir
 
Spd
km/h
Gust
km/h
Spd
kts
Gust
kts
19/11:30pm 16.1 14.1 11.5 74 2.5 W 13 15 7 8 1016.7 - 4.2
19/11:00pm 16.1 13.8 11.7 75 2.4 W 15 20 8 11 1016.8 1016.8 4.2
19/10:30pm 16.1 13.5 11.9 76 2.3 W 17 20 9 11 1017.0 - 4.2
19/10:00pm 16.1 13.1 12.1 77 2.2 W 19 24 10 13 1017.1 1017.1 4.2
19/09:30pm 16.2 15.0 12.9 81 1.8 WSW 11 13 6 7 1017.2 - 4.2
19/09:00pm 15.8 15.3 12.7 82 1.7 WSW 7 13 4 7 1017.2 1017.2 4.2
19/08:30pm 15.7 13.8 13.0 84 1.5 S 15 17 8 9 1017.1 - 4.2
19/08:00pm 15.3 14.8 13.8 91 0.8 S 9 13 5 7 1017.0 1017.0 4.2
19/07:30pm 15.1 14.9 13.6 91 0.8 WNW 7 13 4 7 1016.8 - 2.6
19/07:00pm 15.4 14.1 13.6 89 1.0 WNW 13 13 7 7 1016.6 1016.5 2.0
19/06:30pm 15.6 13.3 12.9 84 1.5 W 17 22 9 12 1016.5 - 1.4
19/06:00pm 16.7 16.3 12.5 76 2.3 E 6 7 3 4 1016.2 1016.1 0.4
19/05:30pm 17.3 18.2 13.0 76 2.4 CALM 0 0 0 0 1016.3 - 0.4
19/05:00pm 17.0 17.0 12.3 74 2.6 S 4 6 2 3 1016.1 1016.0 0.4
19/04:30pm 17.5 16.4 12.0 70 3.0 S 9 13 5 7 1015.9 - 0.4
19/04:00pm 18.7 18.3 12.9 69 3.3 NNW 7 15 4 8 1016.0 1015.9 0.4
19/03:30pm 18.4 17.6 12.8 70 3.1 N 9 13 5 7 1016.1 - 0.4
19/03:00pm 18.3 17.2 13.0 71 3.0 N 11 17 6 9 1015.9 1015.8 0.4
19/02:30pm 17.3 16.8 12.8 75 2.5 NE 7 9 4 5 1015.8 - 0.4
19/02:00pm 17.5 17.2 12.6 73 2.7 N 6 9 3 5 1015.8 1015.7 0.4
19/01:30pm 17.8 17.0 12.9 73 2.7 NE 9 15 5 8 1015.8 - 0.4
19/01:00pm 17.2 16.3 12.5 74 2.6 NNE 9 13 5 7 1016.1 1016.0 0.4
19/12:30pm 18.4 17.7 13.3 72 2.9 N 9 17 5 9 1016.2 - 0.4
19/12:00pm 17.3 16.8 12.6 74 2.6 S 7 11 4 6 1016.6 1016.5 0.4
19/11:30am 17.5 16.7 13.0 75 2.5 SSE 9 13 5 7 1016.8 - 0.4
19/11:00am 16.9 16.2 13.2 79 2.1 SE 9 11 5 6 1016.9 1016.9 0.4
19/10:30am 16.2 15.6 13.5 84 1.5 S 9 11 5 6 1017.0 - 0.4
19/10:00am 15.9 16.2 14.6 92 0.7 SE 6 11 3 6 1017.0 1017.0 0.4
19/09:30am 14.5 10.5 13.0 91 0.8 SE 26 35 14 19 1017.0 - 0.2
19/09:00am 15.5 13.5 14.0 91 0.8 SE 17 22 9 12 1017.0 1017.0 6.2
19/08:30am 15.8 13.4 14.5 92 0.7 S 20 26 11 14 1016.7 - 6.2
19/08:00am 15.4 10.5 13.6 89 1.0 S 32 39 17 21 1016.2 1016.1 5.4
19/07:30am 15.8 11.0 12.9 83 1.6 WSW 30 39 16 21 1016.2 - 3.8
19/07:00am 16.1 12.8 11.5 74 2.5 SW 20 30 11 16 1015.8 1015.7 3.8
19/06:30am 15.3 13.7 12.8 85 1.4 WNW 13 20 7 11 1015.8 - 3.8
19/06:00am 15.1 13.3 12.1 82 1.6 W 13 17 7 9 1015.6 1015.5 3.8
19/05:30am 15.2 12.4 11.4 78 2.0 SSW 17 20 9 11 1015.2 - 3.8
19/05:00am 15.4 12.4 11.8 79 1.9 SSW 19 22 10 12 1015.1 1015.0 3.8
19/04:30am 14.7 10.4 12.2 85 1.4 S 26 30 14 16 1015.1 - 3.8
19/04:00am 15.0 9.4 13.2 89 1.0 S 35 43 19 23 1014.9 1014.8 3.6
19/03:30am 16.5 11.6 12.5 77 2.2 WSW 30 39 16 21 1015.0 - 3.6
19/03:00am 16.5 11.2 12.5 77 2.2 WSW 32 39 17 21 1015.1 1015.0 3.6
19/02:30am 16.8 11.8 12.1 74 2.6 WSW 30 37 16 20 1015.3 - 3.6
19/02:00am 16.5 10.9 11.6 73 2.7 WSW 32 41 17 22 1015.4 1015.3 3.6
19/01:30am 16.6 11.9 11.9 74 2.6 W 28 35 15 19 1015.5 - 3.6
19/01:00am 16.2 12.2 11.8 75 2.4 W 24 32 13 17 1015.6 1015.5 3.6
19/12:30am 16.1 11.9 11.1 72 2.7 WSW 24 35 13 19 1015.7 - 3.6
19/12:00am 16.0 11.8 11.0 72 2.7 W 24 33 13 18 1015.8 1015.7 3.6
 
Date/Time
WST
Temp
°C
App
Temp
°C
Dew
Point
Rel
Hum
%
Delta-T
°C
Wind Press
QNH
hPa
Press
MSL
hPa
Rain
since 9 am
mm
Dir
 
Spd
km/h
Gust
km/h
Spd
kts
Gust
kts
18/11:30pm 15.8 10.6 10.3 70 2.9 WSW 28 35 15 19 1016.0 - 3.6
18/11:00pm 16.0 10.9 10.7 71 2.8 WSW 28 39 15 21 1016.0 1015.9 3.6
18/10:30pm 15.9 11.4 11.3 74 2.5 WSW 26 33 14 18 1016.1 - 3.6
18/10:00pm 15.9 11.4 11.3 74 2.5 WSW 26 32 14 17 1016.2 1016.1 3.6
18/09:30pm 15.9 10.9 11.1 73 2.6 WSW 28 37 15 20 1016.0 - 3.6
18/09:00pm 15.6 11.7 12.0 79 2.0 W 24 33 13 18 1015.8 1015.7 3.6
18/08:30pm 15.2 9.8 12.3 83 1.6 W 32 46 17 25 1015.8 - 3.6
18/08:00pm 16.0 10.8 12.7 81 1.8 W 32 43 17 23 1015.4 1015.3 3.6
18/07:30pm 15.9 10.4 12.3 79 2.0 W 33 46 18 25 1015.1 - 3.6
18/07:00pm 15.1 9.6 12.6 85 1.4 W 33 46 18 25 1014.8 1014.7 3.6
18/06:30pm 15.9 10.8 13.2 84 1.5 W 32 44 17 24 1014.6 - 3.4
18/06:05pm 15.6 10.2 12.9 84 1.5 W 33 52 18 28 1014.2 - 3.2
18/06:00pm 15.9 9.7 12.6 81 1.8 W 37 52 20 28 1014.3 1014.2 3.0
18/05:30pm 15.9 10.4 12.6 81 1.8 W 33 44 18 24 1013.9 - 3.0
18/05:00pm 16.1 9.7 13.2 83 1.6 W 39 52 21 28 1013.8 1013.7 3.0
18/04:30pm 15.9 11.6 14.4 91 0.9 W 30 39 16 21 1013.6 - 3.0
18/04:08pm 15.7 10.2 13.5 87 1.2 W 35 54 19 29 1013.7 - 2.4
18/04:00pm 15.7 11.6 13.9 89 1.0 W 28 39 15 21 1013.6 1013.5 2.2
18/03:45pm 15.1 8.6 13.0 87 1.2 W 39 61 21 33 1014.1 - 1.6
18/03:30pm 15.4 8.8 12.7 84 1.5 W 39 52 21 28 1014.0 - 1.2
18/03:00pm 17.6 9.6 12.3 71 2.9 W 46 59 25 32 1013.7 1013.6 0.8
18/02:30pm 17.5 10.5 12.4 72 2.8 W 41 54 22 29 1013.5 - 0.8
18/02:05pm 18.1 11.1 11.2 64 3.8 W 39 57 21 31 1013.4 - 0.8
18/02:00pm 17.4 10.6 12.1 71 2.9 W 39 54 21 29 1013.3 1013.2 0.8
18/01:40pm 18.6 12.1 13.0 70 3.2 W 39 57 21 31 1013.4 - 0.8
18/01:30pm 18.1 10.5 11.7 66 3.5 W 43 57 23 31 1013.6 - 0.8
18/01:00pm 17.1 9.5 12.4 74 2.6 W 44 59 24 32 1013.6 1013.5 0.8
18/12:39pm 16.3 8.9 12.5 78 2.1 W 43 65 23 35 1013.9 - 0.6
18/12:30pm 18.1 11.1 13.8 76 2.5 W 43 59 23 32 1013.8 - 0.6
18/12:10pm 15.4 7.0 12.3 82 1.7 W 48 67 26 36 1014.2 - 0.6
18/12:00pm 17.2 9.0 11.7 70 3.0 W 46 61 25 33 1014.2 1014.1 0.2
18/11:30am 17.3 10.1 12.0 71 2.9 W 41 56 22 30 1014.2 - 0.2
18/11:07am 17.1 10.6 13.0 77 2.3 W 39 57 21 31 1014.4 - 0.2
18/11:00am 17.0 8.7 12.5 75 2.5 W 48 59 26 32 1014.5 1014.4 0.2
18/10:30am 15.7 7.4 11.5 76 2.3 W 46 59 25 32 1014.6 - 0.2
18/10:00am 15.0 6.9 12.1 83 1.6 W 46 67 25 36 1014.3 1014.2 0.2
18/09:58am 14.8 6.2 11.8 82 1.6 W 48 67 26 36 1014.4 - 0.2
18/09:52am 15.1 4.8 11.7 80 1.8 W 57 67 31 36 1014.8 - 0.0
18/09:30am 16.8 10.3 12.9 78 2.2 WNW 39 57 21 31 1014.2 - 0.0
18/09:15am 16.9 9.4 12.8 77 2.3 WNW 44 63 24 34 1014.3 - 0.0
18/09:00am 16.6 9.3 12.8 78 2.1 WNW 43 57 23 31 1014.0 1013.9 10.8
18/08:35am 16.2 9.2 12.6 79 2.0 WNW 41 61 22 33 1013.9 - 10.6
18/08:30am 16.2 9.9 12.4 78 2.1 WNW 37 54 20 29 1013.8 - 10.6
18/08:15am 16.6 10.1 12.8 78 2.1 WNW 39 63 21 34 1014.1 - 9.8
18/08:00am 17.2 11.7 12.5 74 2.6 NW 33 44 18 24 1013.7 1013.6 9.6
18/07:30am 16.7 9.7 12.5 76 2.3 NW 41 50 22 27 1013.4 - 9.6
18/07:00am 16.7 9.5 11.8 73 2.7 NW 41 54 22 29 1013.3 1013.2 9.6
18/06:32am 17.0 9.4 11.7 71 2.9 NW 43 65 23 35 1012.9 - 9.6
18/06:30am 16.9 8.9 10.5 66 3.4 NW 43 54 23 29 1013.0 - 9.6
18/06:00am 16.8 8.5 9.5 62 3.8 NW 43 57 23 31 1013.1 1013.0 9.6
18/05:30am 16.5 8.9 9.2 62 3.8 NW 39 48 21 26 1013.1 - 9.6
18/05:00am 16.5 8.6 7.7 56 4.4 NW 39 50 21 27 1013.3 1013.2 9.6
18/04:30am 16.5 8.8 8.5 59 4.1 NW 39 57 21 31 1013.3 - 9.6
18/04:21am 16.3 8.4 7.8 57 4.3 NW 39 57 21 31 1013.2 - 9.6
18/04:00am 16.1 7.6 6.8 54 4.6 NW 41 56 22 30 1013.3 1013.2 9.6
18/03:53am 16.2 8.4 6.6 53 4.7 WNW 37 56 20 30 1013.3 - 9.6
18/03:30am 16.3 7.6 7.5 56 4.4 WNW 43 54 23 29 1013.3 - 9.6
18/03:00am 16.1 8.6 7.8 58 4.2 WNW 37 50 20 27 1013.7 1013.6 9.6
18/02:30am 15.9 8.2 8.6 62 3.7 WNW 39 50 21 27 1013.8 - 9.6
18/02:00am 15.8 8.4 9.7 67 3.2 WNW 39 52 21 28 1013.9 1013.8 9.6
18/01:30am 16.2 10.2 12.0 76 2.3 WNW 35 46 19 25 1013.9 - 9.6
18/01:00am 16.6 9.6 11.3 71 2.9 WNW 39 48 21 26 1013.9 1013.8 9.6
18/12:30am 16.4 10.5 12.4 77 2.2 WNW 35 48 19 26 1014.1 - 9.6
18/12:08am 16.5 12.0 15.0 91 0.9 WNW 32 48 17 26 1014.2 - 9.6
18/12:00am 16.2 13.3 15.2 94 0.6 WNW 24 30 13 16 1013.9 1013.8 9.6
 
Date/Time
WST
Temp
°C
App
Temp
°C
Dew
Point
Rel
Hum
%
Delta-T
°C
Wind Press
QNH
hPa
Press
MSL
hPa
Rain
since 9 am
mm
Dir
 
Spd
km/h
Gust
km/h
Spd
kts
Gust
kts
17/11:30pm 16.2 11.8 15.2 94 0.6 NNW 32 43 17 23 1013.7 - 6.2
17/11:21pm 16.6 12.3 15.5 93 0.6 NW 32 39 17 21 1013.8 - 6.0
17/11:00pm 16.2 8.7 14.0 87 1.2 N 46 65 25 35 1013.4 1013.3 5.6
17/10:57pm 16.1 9.2 14.1 88 1.1 N 43 63 23 34 1013.9 - 5.6
17/10:46pm 15.7 8.2 13.9 89 1.0 N 46 56 25 30 1014.2 - 5.6
17/10:30pm 16.0 5.3 15.0 94 0.6 NNW 65 83 35 45 1014.2 - 5.0
17/10:00pm 15.5 1.8 13.5 88 1.1 NW 78 104 42 56 1014.7 1014.6 1.4
17/09:51pm 17.9 4.5 13.4 75 2.5 NNW 76 104 41 56 1013.5 - 0.2
17/09:50pm 18.3 6.5 14.6 79 2.1 NNW 70 87 38 47 1013.9 - 0.2
17/09:41pm 19.0 10.7 12.7 67 3.5 N 48 83 26 45 1013.5 - 0.0
17/09:40pm 19.3 11.4 12.8 66 3.7 N 46 65 25 35 1013.4 - 0.0
17/09:30pm 19.9 13.4 12.9 64 4.0 N 39 52 21 28 1013.0 - 0.0
17/09:22pm 19.2 13.6 13.2 68 3.4 N 35 41 19 22 1013.1 - 0.0
17/09:00pm 20.2 9.9 11.7 58 4.7 NW 57 80 31 43 1014.2 1014.1 0.0
17/08:55pm 20.2 8.8 11.9 59 4.6 NW 63 82 34 44 1014.2 - 0.0
17/08:47pm 20.3 7.8 11.8 58 4.7 NNW 69 82 37 44 1014.0 - 0.0
17/08:45pm 20.5 13.4 13.5 64 4.0 NNW 43 74 23 40 1014.1 - 0.0
17/08:30pm 20.8 13.8 15.4 71 3.2 N 46 61 25 33 1013.7 - 0.0
17/08:00pm 20.2 12.9 15.4 74 2.8 N 48 72 26 39 1012.4 1012.3 0.0
17/07:44pm 20.5 14.1 15.9 75 2.8 N 44 65 24 35 1012.7 - 0.0
17/07:30pm 20.6 14.3 15.6 73 3.0 N 43 54 23 29 1013.0 - 0.0
17/07:00pm 20.8 13.1 14.5 67 3.7 N 48 69 26 37 1013.0 1012.9 0.0
17/06:54pm 20.8 13.3 14.9 69 3.5 N 48 69 26 37 1013.2 - 0.0
17/06:30pm 20.7 13.4 14.6 68 3.6 NNW 46 59 25 32 1013.9 - 0.0
17/06:00pm 20.6 14.3 13.6 64 4.0 N 39 52 21 28 1013.5 1013.4 0.0
17/05:30pm 20.4 15.0 13.8 66 3.8 N 35 44 19 24 1013.5 - 0.0
17/05:00pm 20.6 14.8 12.8 61 4.4 N 35 43 19 23 1013.4 1013.3 0.0
17/04:30pm 20.9 14.8 11.8 56 5.1 NNW 35 46 19 25 1013.7 - 0.0
17/04:17pm 21.1 14.9 11.4 54 5.4 NNW 35 54 19 29 1013.8 - 0.0
17/04:00pm 21.1 13.4 11.4 54 5.4 NNW 43 54 23 29 1014.2 1014.1 0.0
17/03:30pm 21.4 13.4 10.3 49 6.0 NNW 43 54 23 29 1014.1 - 0.0
17/03:00pm 22.2 15.2 11.3 50 6.1 NNW 39 48 21 26 1013.9 1013.8 0.0
17/02:30pm 21.3 16.4 12.4 57 5.0 N 30 37 16 20 1014.2 - 0.0
17/02:00pm 21.3 18.2 13.5 61 4.5 N 22 30 12 16 1014.1 1014.0 0.0
17/01:30pm 21.3 17.6 14.0 63 4.2 N 26 32 14 17 1014.4 - 0.0
17/01:00pm 22.9 18.5 11.6 49 6.3 N 26 35 14 19 1014.6 1014.5 0.0

Other Formats:

Comma delimited format used in spreadsheet applications
http://www.bom.gov.au/fwo/IDW60801/IDW60801.94602.axf

JavaScript Object Notation format (JSON) in row-major order
http://www.bom.gov.au/fwo/IDW60801/IDW60801.94602.json